Weather Data

Pearl Creek Farm: 8878 N Farm Road 75, Walnut Grove MO 65770

<== Previous Day (Saturday 18 Jan 2014) | Next Day (Monday 20 Jan 2014) ==>

Summary Precipitation Data For Sunday 19 January 2014

ElementValueUnits
Precipitation0"
Notes(none)
SourcePearl Creek Farm

Summary Temperature Data For Sunday 19 January 2014

ElementValueUnits
High Temperature54 oF
Low Temperature20 oF
Average Temperature36 oF
High Humidity83 %
Low Humidity40 %
Average Humidity64 %
SourcePearl Creek Farm

Detail Temperature Data For Sunday 19 January 2014

Date / TimeTemp (F)RH (%)Dew Pt (F)Report Date / TimeSource
2014-01-19 00:00:00 28 68 18.8 2014-02-09 14:43:36 Pearl Creek Farm
2014-01-19 00:30:00 27 71 18.7 2014-02-09 14:43:36 Pearl Creek Farm
2014-01-19 01:00:00 26 74 18.9 2014-02-09 14:43:36 Pearl Creek Farm
2014-01-19 01:30:00 25 75 18.1 2014-02-09 14:43:36 Pearl Creek Farm
2014-01-19 02:00:00 25 75 18.1 2014-02-09 14:43:36 Pearl Creek Farm
2014-01-19 02:30:00 24 76 17.6 2014-02-09 14:43:36 Pearl Creek Farm
2014-01-19 03:00:00 23 78 17.2 2014-02-09 14:43:36 Pearl Creek Farm
2014-01-19 03:30:00 22 79 16.4 2014-02-09 14:43:36 Pearl Creek Farm
2014-01-19 04:00:00 21 80 15.8 2014-02-09 14:43:36 Pearl Creek Farm
2014-01-19 04:30:00 21 80 15.8 2014-02-09 14:43:36 Pearl Creek Farm
2014-01-19 05:00:00 20 82 15.3 2014-02-09 14:43:36 Pearl Creek Farm
2014-01-19 05:30:00 21 82 16.3 2014-02-09 14:43:36 Pearl Creek Farm
2014-01-19 06:00:00 21 83 16.7 2014-02-09 14:43:36 Pearl Creek Farm
2014-01-19 06:30:00 22 83 17.7 2014-02-09 14:43:36 Pearl Creek Farm
2014-01-19 07:00:00 21 83 16.7 2014-02-09 14:43:36 Pearl Creek Farm
2014-01-19 07:30:00 21 82 16.3 2014-02-09 14:43:36 Pearl Creek Farm
2014-01-19 08:00:00 22 82 17.4 2014-02-09 14:43:36 Pearl Creek Farm
2014-01-19 08:30:00 24 82 19.2 2014-02-09 14:43:36 Pearl Creek Farm
2014-01-19 09:00:00 27 81 21.8 2014-02-09 14:43:36 Pearl Creek Farm
2014-01-19 09:30:00 29 78 23.0 2014-02-09 14:43:36 Pearl Creek Farm
2014-01-19 10:00:00 33 74 25.5 2014-02-09 14:43:36 Pearl Creek Farm
2014-01-19 10:30:00 36 70 27.2 2014-02-09 14:43:36 Pearl Creek Farm
2014-01-19 11:00:00 39 66 28.5 2014-02-09 14:43:36 Pearl Creek Farm
2014-01-19 11:30:00 42 61 29.4 2014-02-09 14:43:36 Pearl Creek Farm
2014-01-19 12:00:00 45 56 30.1 2014-02-09 14:43:36 Pearl Creek Farm
2014-01-19 12:30:00 47 53 30.6 2014-02-09 14:43:36 Pearl Creek Farm
2014-01-19 13:00:00 50 48 30.9 2014-02-09 14:43:36 Pearl Creek Farm
2014-01-19 13:30:00 52 45 31.4 2014-02-09 14:43:36 Pearl Creek Farm
2014-01-19 14:00:00 53 44 31.4 2014-02-09 14:43:36 Pearl Creek Farm
2014-01-19 14:30:00 54 40 30.3 2014-02-09 14:43:36 Pearl Creek Farm
2014-01-19 15:00:00 54 42 31.5 2014-02-09 14:43:36 Pearl Creek Farm
2014-01-19 15:30:00 54 41 30.9 2014-02-09 14:43:36 Pearl Creek Farm
2014-01-19 16:00:00 54 41 30.9 2014-02-09 14:43:36 Pearl Creek Farm
2014-01-19 16:30:00 53 41 29.7 2014-02-09 14:43:36 Pearl Creek Farm
2014-01-19 17:00:00 52 43 30.0 2014-02-09 14:43:36 Pearl Creek Farm
2014-01-19 17:30:00 49 47 29.4 2014-02-09 14:43:36 Pearl Creek Farm
2014-01-19 18:00:00 47 49 28.9 2014-02-09 14:43:36 Pearl Creek Farm
2014-01-19 18:30:00 46 51 28.7 2014-02-09 14:43:36 Pearl Creek Farm
2014-01-19 19:00:00 44 51 27.1 2014-02-09 14:43:36 Pearl Creek Farm
2014-01-19 19:30:00 39 60 26.1 2014-02-09 14:43:36 Pearl Creek Farm
2014-01-19 20:00:00 38 65 27.1 2014-02-09 14:43:36 Pearl Creek Farm
2014-01-19 20:30:00 42 59 28.7 2014-02-09 14:43:36 Pearl Creek Farm
2014-01-19 21:00:00 42 60 29.2 2014-02-09 14:43:36 Pearl Creek Farm
2014-01-19 21:30:00 42 61 29.4 2014-02-09 14:43:36 Pearl Creek Farm
2014-01-19 22:00:00 43 61 30.3 2014-02-09 14:43:36 Pearl Creek Farm
2014-01-19 22:30:00 44 58 30.0 2014-02-09 14:43:36 Pearl Creek Farm
2014-01-19 23:00:00 43 59 29.7 2014-02-09 14:43:36 Pearl Creek Farm
2014-01-19 23:30:00 43 59 29.7 2014-02-09 14:43:36 Pearl Creek Farm

A total of 48 rows are displayed.